createdAt,value
2023-01-04T00:00:10.112Z,6.22
2023-01-04T00:02:36.823Z,6.22
2023-01-04T00:05:03.833Z,7.12
2023-01-04T00:07:30.870Z,6.37
2023-01-04T00:09:57.453Z,7.12
2023-01-04T00:12:42.211Z,7.32
2023-01-04T00:15:28.181Z,6.22
2023-01-04T00:17:54.814Z,7.95
2023-01-04T00:20:21.572Z,7.80
2023-01-04T00:22:48.123Z,6.45
2023-01-04T00:26:04.655Z,6.32
2023-01-04T00:28:56.861Z,6.12
2023-01-04T00:31:25.040Z,6.55
2023-01-04T00:33:56.646Z,5.90
2023-01-04T00:36:23.527Z,5.45
2023-01-04T00:39:07.381Z,5.18
2023-01-04T00:44:26.111Z,4.43
2023-01-04T00:46:53.008Z,4.60
2023-01-04T00:49:19.757Z,3.95
2023-01-04T00:51:46.332Z,4.03
2023-01-04T00:54:15.090Z,4.37
2023-01-04T00:56:42.224Z,4.30
2023-01-04T00:59:24.116Z,4.03
2023-01-04T01:01:51.976Z,3.60
2023-01-04T01:04:22.584Z,4.25
2023-01-04T01:06:51.515Z,3.47
2023-01-04T01:10:15.571Z,4.05
2023-01-04T01:15:34.848Z,3.78
2023-01-04T01:18:01.466Z,4.05
2023-01-04T01:20:28.039Z,3.62
2023-01-04T01:22:56.142Z,3.80
2023-01-04T01:25:23.026Z,3.72
2023-01-04T01:36:18.868Z,4.20
2023-01-04T01:38:46.227Z,3.92
2023-01-04T01:41:21.199Z,3.78
2023-01-04T01:44:54.823Z,4.15
2023-01-04T01:47:46.686Z,5.03
2023-01-04T01:50:44.582Z,4.70
2023-01-04T01:53:12.092Z,4.55
2023-01-04T01:55:40.543Z,4.65
2023-01-04T01:58:36.714Z,5.07
2023-01-04T02:01:13.602Z,4.87
2023-01-04T02:03:42.536Z,4.82
2023-01-04T02:06:13.311Z,4.85
2023-01-04T02:08:42.758Z,4.60
2023-01-04T02:11:09.742Z,5.53
2023-01-04T02:13:57.324Z,5.07
2023-01-04T02:16:29.885Z,5.40
2023-01-04T02:19:35.225Z,4.60
2023-01-04T02:22:20.836Z,4.87
2023-01-04T02:24:50.030Z,5.57
2023-01-04T02:30:44.162Z,4.47
2023-01-04T02:33:19.907Z,4.53
2023-01-04T02:36:14.455Z,4.72
2023-01-04T02:39:11.249Z,4.78
2023-01-04T02:41:47.401Z,5.07
2023-01-04T02:49:09.394Z,4.57
2023-01-04T02:51:38.268Z,4.85
2023-01-04T02:54:29.982Z,5.03
2023-01-04T02:57:11.679Z,4.65
2023-01-04T03:00:02.902Z,4.93
2023-01-04T03:05:58.704Z,4.62
2023-01-04T03:08:33.698Z,4.50
2023-01-04T03:11:30.207Z,4.60
2023-01-04T03:14:33.711Z,4.90
2023-01-04T03:17:07.896Z,4.95
2023-01-04T03:20:21.778Z,4.90
2023-01-04T03:23:33.078Z,5.35
2023-01-04T03:26:39.785Z,5.10
2023-01-04T03:29:36.293Z,6.05
2023-01-04T03:32:28.903Z,5.68
2023-01-04T03:35:14.739Z,5.23
2023-01-04T03:38:18.287Z,5.57
2023-01-04T03:41:20.453Z,5.80
2023-01-04T03:44:18.076Z,5.07
2023-01-04T03:47:09.067Z,5.07
2023-01-04T03:49:48.276Z,4.75
2023-01-04T03:54:59.437Z,5.10
2023-01-04T03:57:26.467Z,5.18
2023-01-04T03:59:59.337Z,5.70
2023-01-04T04:03:25.632Z,5.50
2023-01-04T04:09:08.839Z,6.65
2023-01-04T04:11:35.402Z,6.35
2023-01-04T04:14:02.049Z,6.45
2023-01-04T04:16:28.799Z,6.68
2023-01-04T04:18:55.987Z,7.62
2023-01-04T04:21:22.904Z,7.50
2023-01-04T04:23:49.578Z,7.40
2023-01-04T04:26:16.710Z,6.15
2023-01-04T04:28:43.905Z,6.78
2023-01-04T04:31:10.650Z,7.07
2023-01-04T04:33:37.316Z,10.23
2023-01-04T04:36:04.740Z,22.50
2023-01-04T04:38:31.304Z,66.78
2023-01-04T04:41:16.848Z,40.08
2023-01-04T04:43:43.842Z,43.42
2023-01-04T04:46:10.600Z,28.80
2023-01-04T04:48:37.255Z,13.43
2023-01-04T04:51:03.959Z,9.55
2023-01-04T04:57:11.983Z,7.87
2023-01-04T04:59:38.542Z,8.05
2023-01-04T05:02:05.229Z,7.53
2023-01-04T05:04:31.911Z,7.68
2023-01-04T05:06:58.484Z,7.05
2023-01-04T05:09:25.025Z,7.00
2023-01-04T05:12:32.206Z,8.07
2023-01-04T05:14:58.751Z,8.18
2023-01-04T05:17:25.320Z,6.82
2023-01-04T05:19:51.898Z,7.35
2023-01-04T05:26:06.900Z,6.57
2023-01-04T05:28:33.488Z,6.28
2023-01-04T05:31:00.048Z,6.53
2023-01-04T05:33:29.395Z,5.82
2023-01-04T05:35:58.301Z,5.60
2023-01-04T05:38:25.098Z,6.18
2023-01-04T05:43:46.830Z,14.77
2023-01-04T05:46:13.541Z,12.95
2023-01-04T05:48:40.356Z,8.55
2023-01-04T05:51:06.921Z,8.25
2023-01-04T05:53:33.485Z,7.47
2023-01-04T05:56:00.049Z,6.82
2023-01-04T05:58:57.263Z,7.35
2023-01-04T06:01:51.945Z,7.15
2023-01-04T06:04:18.632Z,8.13
2023-01-04T06:06:45.173Z,7.32
2023-01-04T06:09:11.757Z,7.10
2023-01-04T06:11:58.495Z,7.60
2023-01-04T06:14:25.044Z,6.97
2023-01-04T06:16:51.915Z,6.43
2023-01-04T06:19:18.597Z,7.78
2023-01-04T06:21:45.178Z,6.40
2023-01-04T06:24:12.471Z,6.75
2023-01-04T06:26:39.827Z,7.32
2023-01-04T06:29:06.426Z,6.87
2023-01-04T06:31:35.961Z,8.85
2023-01-04T06:34:03.080Z,19.87
2023-01-04T06:36:30.300Z,12.93
2023-01-04T06:39:00.672Z,16.73
2023-01-04T06:41:27.483Z,11.77
2023-01-04T06:43:54.187Z,11.50
2023-01-04T06:46:47.849Z,12.75
2023-01-04T07:03:12.535Z,9.45
2023-01-04T07:05:41.781Z,9.27
2023-01-04T07:08:10.865Z,10.00
2023-01-04T07:10:37.544Z,9.00
2023-01-04T07:13:04.288Z,8.90
2023-01-04T07:15:37.138Z,10.20
2023-01-04T07:18:06.864Z,11.38
2023-01-04T07:20:33.432Z,9.18
2023-01-04T07:23:00.403Z,9.73
2023-01-04T07:25:27.025Z,10.40
2023-01-04T07:27:56.563Z,10.02
2023-01-04T07:30:25.448Z,9.32
2023-01-04T07:35:35.398Z,13.43
2023-01-04T07:38:02.836Z,13.57
2023-01-04T07:40:29.619Z,11.43
2023-01-04T07:42:58.527Z,12.50
2023-01-04T07:48:00.361Z,12.10
2023-01-04T07:50:26.942Z,13.18
2023-01-04T07:53:01.568Z,14.15
2023-01-04T07:55:28.255Z,12.90
2023-01-04T07:57:57.063Z,13.10
2023-01-04T08:08:36.455Z,14.50
2023-01-04T08:13:52.461Z,13.27
2023-01-04T08:17:15.655Z,14.00
2023-01-04T08:20:27.112Z,13.82
2023-01-04T08:22:53.636Z,13.45
2023-01-04T08:25:20.921Z,13.30
2023-01-04T08:27:47.529Z,12.52
2023-01-04T08:30:14.115Z,13.57
2023-01-04T08:32:40.844Z,14.48
2023-01-04T08:35:07.694Z,13.88
2023-01-04T08:37:35.618Z,14.48
2023-01-04T08:40:02.574Z,13.77
2023-01-04T08:42:31.858Z,14.45
2023-01-04T08:45:01.863Z,15.48
2023-01-04T08:47:29.910Z,14.02
2023-01-04T08:49:56.635Z,14.25
2023-01-04T08:52:23.421Z,13.62
2023-01-04T08:54:50.542Z,13.38
2023-01-04T08:57:18.292Z,12.95
2023-01-04T08:59:45.290Z,12.18
2023-01-04T09:02:26.390Z,12.27
2023-01-04T09:04:54.105Z,12.60
2023-01-04T09:07:20.779Z,12.43
2023-01-04T09:09:47.487Z,12.25
2023-01-04T09:12:14.024Z,12.77
2023-01-04T09:14:40.610Z,12.82
2023-01-04T09:17:07.573Z,12.90
2023-01-04T09:19:34.188Z,12.60
2023-01-04T09:22:01.017Z,12.82
2023-01-04T09:24:27.815Z,13.00
2023-01-04T09:26:54.403Z,12.07
2023-01-04T09:29:21.214Z,12.25
2023-01-04T09:31:47.937Z,12.90
2023-01-04T09:34:17.094Z,11.90
2023-01-04T09:36:45.939Z,11.90
2023-01-04T09:39:21.083Z,11.23
2023-01-04T09:41:59.993Z,10.55
2023-01-04T09:47:43.321Z,13.02
2023-01-04T09:50:22.624Z,14.05
2023-01-04T09:52:59.148Z,14.10
2023-01-04T09:55:45.859Z,13.73
2023-01-04T09:58:18.506Z,11.93
2023-01-04T10:00:50.001Z,13.68
2023-01-04T10:03:28.399Z,13.65
2023-01-04T10:05:56.276Z,12.27
2023-01-04T10:08:23.329Z,11.85
2023-01-04T10:11:15.169Z,14.48
2023-01-04T10:14:00.333Z,13.82
2023-01-04T10:17:11.167Z,13.88
2023-01-04T10:21:08.530Z,13.45
2023-01-04T10:22:47.168Z,12.55
2023-01-04T10:25:22.610Z,13.30
2023-01-04T10:27:54.152Z,12.15
2023-01-04T10:30:35.494Z,12.90
2023-01-04T10:33:08.001Z,12.60
2023-01-04T10:35:39.309Z,12.32
2023-01-04T10:38:19.997Z,12.35
2023-01-04T10:40:48.378Z,12.48
2023-01-04T10:44:10.529Z,12.68
2023-01-04T10:49:10.752Z,13.85
2023-01-04T10:51:44.439Z,14.90
2023-01-04T10:54:21.988Z,14.77
2023-01-04T10:57:00.201Z,12.32
2023-01-04T10:59:38.344Z,12.40
2023-01-04T11:02:18.076Z,11.85
2023-01-04T11:04:57.737Z,10.90
2023-01-04T11:07:53.688Z,12.35
2023-01-04T11:10:28.369Z,11.32
2023-01-04T11:12:55.102Z,11.60
2023-01-04T11:15:22.317Z,11.90
2023-01-04T11:17:50.728Z,10.10
2023-01-04T11:23:17.447Z,8.07
2023-01-04T11:25:56.289Z,10.80
2023-01-04T11:28:50.725Z,7.72
2023-01-04T11:31:34.723Z,6.87
2023-01-04T11:34:03.559Z,8.15
2023-01-04T11:40:41.670Z,7.30
2023-01-04T11:43:19.940Z,7.18
2023-01-04T11:45:55.686Z,7.47
2023-01-04T11:48:39.845Z,7.00
2023-01-04T11:51:17.667Z,6.70
2023-01-04T11:53:44.868Z,4.45
2023-01-04T11:56:11.524Z,3.78
2023-01-04T11:58:38.147Z,3.35
2023-01-04T12:01:05.501Z,3.60
2023-01-04T12:03:34.738Z,4.35
2023-01-04T12:06:02.729Z,7.90
2023-01-04T12:08:35.450Z,7.80
2023-01-04T12:11:05.492Z,7.10
2023-01-04T12:13:34.240Z,7.70
2023-01-04T12:16:22.188Z,7.40
2023-01-04T12:18:51.266Z,6.90
2023-01-04T12:21:23.224Z,6.87
2023-01-04T12:23:51.793Z,6.12
2023-01-04T12:26:19.446Z,6.07
2023-01-04T12:28:49.380Z,5.40
2023-01-04T12:31:22.386Z,4.55
2023-01-04T12:34:13.948Z,4.50
2023-01-04T12:36:40.478Z,4.70
2023-01-04T12:39:15.659Z,4.50
2023-01-04T12:41:43.448Z,4.70
2023-01-04T12:44:47.162Z,5.30
2023-01-04T12:50:09.047Z,6.10
2023-01-04T12:52:55.284Z,7.18
2023-01-04T12:55:34.570Z,7.55
2023-01-04T12:59:23.489Z,8.10
2023-01-04T13:01:31.207Z,7.95
2023-01-04T13:04:06.028Z,8.65
2023-01-04T13:06:40.121Z,8.73
2023-01-04T13:09:24.139Z,9.13
2023-01-04T13:12:04.872Z,9.43
2023-01-04T13:14:42.402Z,8.93
2023-01-04T13:17:08.969Z,8.85
2023-01-04T13:19:38.964Z,10.30
2023-01-04T13:22:15.994Z,10.70
2023-01-04T13:24:45.079Z,10.82
2023-01-04T13:27:21.589Z,11.48
2023-01-04T13:29:51.300Z,11.10
2023-01-04T13:32:26.844Z,11.05
2023-01-04T13:34:59.727Z,11.00
2023-01-04T13:40:23.617Z,11.18
2023-01-04T13:43:26.333Z,12.13
2023-01-04T13:46:14.427Z,12.43
2023-01-04T13:48:54.490Z,12.45
2023-01-04T13:51:38.505Z,12.35
2023-01-04T13:54:24.418Z,12.98
2023-01-04T13:56:56.006Z,13.77
2023-01-04T13:59:23.373Z,14.00
2023-01-04T14:01:53.218Z,13.65
2023-01-04T14:04:29.014Z,13.85
2023-01-04T14:09:49.615Z,13.62
2023-01-04T14:12:21.312Z,13.75
2023-01-04T14:14:51.130Z,14.43
2023-01-04T14:17:26.607Z,13.65
2023-01-04T14:19:58.876Z,14.32
2023-01-04T14:22:28.694Z,15.23
2023-01-04T14:25:13.504Z,14.40
2023-01-04T14:27:44.884Z,14.80
2023-01-04T14:30:15.851Z,14.95
2023-01-04T14:32:42.540Z,15.10
2023-01-04T14:35:14.636Z,14.68
2023-01-04T14:37:41.374Z,14.63
2023-01-04T14:40:29.195Z,15.63
2023-01-04T14:42:55.773Z,14.13
2023-01-04T14:45:22.612Z,14.80
2023-01-04T14:47:51.630Z,15.18
2023-01-04T14:50:18.440Z,14.73
2023-01-04T14:52:54.585Z,15.32
2023-01-04T14:55:23.473Z,15.05
2023-01-04T14:57:50.770Z,15.02
2023-01-04T15:00:19.786Z,14.60
2023-01-04T15:02:51.578Z,15.70
2023-01-04T15:05:22.649Z,16.83
2023-01-04T15:07:49.332Z,16.00
2023-01-04T15:10:24.090Z,16.15
2023-01-04T15:12:53.221Z,15.70
2023-01-04T15:15:20.889Z,16.08
2023-01-04T15:17:51.024Z,14.52
2023-01-04T15:20:17.679Z,14.95
2023-01-04T15:22:44.471Z,15.77
2023-01-04T15:25:11.667Z,16.45
2023-01-04T15:27:42.753Z,15.55
2023-01-04T15:30:11.816Z,16.60
2023-01-04T15:32:39.183Z,17.65
2023-01-04T15:35:06.865Z,17.20
2023-01-04T15:37:37.298Z,17.12
2023-01-04T15:40:04.372Z,16.95
2023-01-04T15:42:49.561Z,17.77
2023-01-04T15:45:16.567Z,21.40
2023-01-04T15:47:50.721Z,20.67
2023-01-04T15:50:18.525Z,20.65
2023-01-04T15:52:45.158Z,19.77
2023-01-04T15:55:12.938Z,19.85
2023-01-04T15:57:43.689Z,21.50
2023-01-04T16:00:11.617Z,22.33
2023-01-04T16:02:38.305Z,22.40
2023-01-04T16:05:05.930Z,21.50
2023-01-04T16:07:36.189Z,23.65
2023-01-04T16:10:03.922Z,25.08
2023-01-04T16:12:49.848Z,28.08
2023-01-04T16:18:32.123Z,52.20
2023-01-04T16:20:59.824Z,51.47
2023-01-04T16:23:27.144Z,47.67
2023-01-04T16:26:08.840Z,45.35
2023-01-04T16:28:36.569Z,42.03
2023-01-04T16:31:03.987Z,37.78
2023-01-04T16:33:31.292Z,35.30
2023-01-04T16:36:09.699Z,27.35
2023-01-04T16:38:38.276Z,24.52
2023-01-04T16:41:07.404Z,26.48
2023-01-04T16:43:43.252Z,29.60
2023-01-04T16:46:13.059Z,29.92
2023-01-04T16:48:55.161Z,29.90
2023-01-04T16:51:24.178Z,27.83
2023-01-04T16:53:51.166Z,27.60
2023-01-04T16:56:20.751Z,29.20
2023-01-04T16:58:48.458Z,29.73
2023-01-04T17:01:29.847Z,31.02
2023-01-04T17:03:59.000Z,30.00
2023-01-04T17:06:28.701Z,28.62
2023-01-04T17:08:56.836Z,27.90
2023-01-04T17:14:15.323Z,30.25
2023-01-04T17:16:45.406Z,27.75
2023-01-04T17:19:12.056Z,28.52
2023-01-04T17:21:38.734Z,27.65
2023-01-04T17:24:05.614Z,28.30
2023-01-04T17:26:33.209Z,24.20
2023-01-04T17:29:01.421Z,21.75
2023-01-04T17:31:31.099Z,22.37
2023-01-04T17:33:58.077Z,23.55
2023-01-04T17:36:24.906Z,22.35
2023-01-04T17:38:51.637Z,22.90
2023-01-04T17:41:26.947Z,29.58
2023-01-04T17:43:58.241Z,45.47
2023-01-04T17:46:27.832Z,33.08
2023-01-04T17:49:21.113Z,25.45
2023-01-04T17:51:41.649Z,27.23
2023-01-04T17:54:11.601Z,34.97
2023-01-04T17:56:38.267Z,30.45
2023-01-04T17:59:09.066Z,31.33
2023-01-04T18:01:36.600Z,26.62
2023-01-04T18:04:04.142Z,25.15
2023-01-04T18:06:34.123Z,24.55
2023-01-04T18:09:01.850Z,28.02
2023-01-04T18:11:29.185Z,29.12
2023-01-04T18:13:56.477Z,29.42
2023-01-04T18:16:28.230Z,29.10
2023-01-04T18:18:59.668Z,28.80
2023-01-04T18:21:31.144Z,28.40
2023-01-04T18:27:20.335Z,39.67
2023-01-04T18:29:39.922Z,45.05
2023-01-04T18:32:06.576Z,25.77
2023-01-04T18:34:33.489Z,24.40
2023-01-04T18:37:00.153Z,23.90
2023-01-04T18:39:26.899Z,22.92
2023-01-04T18:41:53.567Z,24.60
2023-01-04T18:44:32.774Z,23.00
2023-01-04T18:47:00.963Z,22.23
2023-01-04T18:49:27.552Z,22.42
2023-01-04T18:51:54.286Z,21.37
2023-01-04T18:54:21.763Z,22.55
2023-01-04T18:56:49.090Z,21.40
2023-01-04T18:59:19.182Z,21.67
2023-01-04T19:01:46.256Z,22.27
2023-01-04T19:04:16.099Z,26.55
2023-01-04T19:06:43.151Z,23.77
2023-01-04T19:09:09.903Z,22.70
2023-01-04T19:11:36.524Z,22.90
2023-01-04T19:14:03.987Z,20.35
2023-01-04T19:16:32.650Z,22.52
2023-01-04T19:19:00.331Z,23.55
2023-01-04T19:21:28.125Z,23.50
2023-01-04T19:23:54.952Z,24.08
2023-01-04T19:26:40.486Z,23.38
2023-01-04T19:29:09.803Z,23.40
2023-01-04T19:31:36.394Z,23.35
2023-01-04T19:34:03.710Z,25.02
2023-01-04T19:40:26.217Z,24.67
2023-01-04T19:42:52.824Z,23.00
2023-01-04T19:45:19.887Z,22.85
2023-01-04T19:47:50.214Z,23.12
2023-01-04T19:50:17.656Z,23.12
2023-01-04T19:52:44.658Z,21.70
2023-01-04T19:55:33.244Z,21.98
2023-01-04T19:58:00.023Z,20.65
2023-01-04T20:00:26.559Z,21.52
2023-01-04T20:02:53.421Z,22.20
2023-01-04T20:06:05.187Z,23.62
2023-01-04T20:14:31.165Z,23.67
2023-01-04T20:42:08.413Z,24.87
2023-01-04T20:44:35.192Z,23.27
2023-01-04T20:47:01.741Z,24.48
2023-01-04T20:49:28.329Z,24.70
2023-01-04T20:51:54.927Z,25.00
2023-01-04T20:58:49.285Z,25.58
2023-01-04T21:01:18.264Z,23.83
2023-01-04T21:03:45.088Z,24.73
2023-01-04T21:06:14.464Z,24.08
2023-01-04T21:08:42.531Z,23.55
2023-01-04T21:11:11.623Z,25.58
2023-01-04T21:14:01.775Z,23.15
2023-01-04T21:16:28.322Z,24.52
2023-01-04T21:18:55.004Z,24.05
2023-01-04T21:21:21.675Z,23.85
2023-01-04T21:24:16.421Z,23.35
2023-01-04T21:30:40.396Z,22.50
2023-01-04T21:33:09.216Z,28.52
2023-01-04T21:35:36.319Z,25.30
2023-01-04T21:38:05.426Z,23.30
2023-01-04T21:40:33.599Z,22.83
2023-01-04T21:43:00.710Z,22.73
2023-01-04T21:45:27.267Z,23.00
2023-01-04T21:47:54.719Z,21.73
2023-01-04T21:50:21.317Z,21.67
2023-01-04T21:52:47.857Z,23.52
2023-01-04T21:55:14.481Z,20.85
2023-01-04T21:57:41.110Z,23.08
2023-01-04T22:00:08.598Z,22.33
2023-01-04T22:02:35.305Z,20.75
2023-01-04T22:05:02.030Z,21.67
2023-01-04T22:07:28.637Z,20.20
2023-01-04T22:09:57.760Z,19.70
2023-01-04T22:12:24.697Z,19.35
2023-01-04T22:14:51.347Z,19.00
2023-01-04T22:17:17.951Z,19.12
2023-01-04T22:19:44.589Z,18.50
2023-01-04T22:22:11.224Z,19.17
2023-01-04T22:24:38.471Z,19.75
2023-01-04T22:27:09.402Z,19.23
2023-01-04T22:29:36.096Z,18.95
2023-01-04T22:32:02.697Z,18.48
2023-01-04T22:34:29.322Z,18.75
2023-01-04T22:36:56.244Z,20.12
2023-01-04T22:39:22.923Z,18.48
2023-01-04T22:41:49.472Z,19.95
2023-01-04T22:44:16.107Z,19.50
2023-01-04T22:46:42.919Z,17.98
2023-01-04T22:49:28.125Z,18.50
2023-01-04T22:51:55.860Z,17.15
2023-01-04T22:54:22.500Z,17.17
2023-01-04T22:56:49.203Z,17.05
2023-01-04T22:59:15.975Z,17.37
2023-01-04T23:01:42.662Z,16.85
2023-01-04T23:04:09.678Z,17.33
2023-01-04T23:06:36.301Z,17.48
2023-01-04T23:09:06.000Z,18.70
2023-01-04T23:11:35.189Z,17.62
2023-01-04T23:14:03.266Z,18.27
2023-01-04T23:16:33.204Z,17.85
2023-01-04T23:19:01.502Z,17.40
2023-01-04T23:21:28.384Z,16.55
2023-01-04T23:23:54.967Z,17.50
2023-01-04T23:26:23.328Z,15.02
2023-01-04T23:28:50.416Z,16.58
2023-01-04T23:31:19.875Z,15.30
2023-01-04T23:33:47.027Z,16.10
2023-01-04T23:36:16.424Z,14.18
2023-01-04T23:38:44.104Z,13.52
2023-01-04T23:41:11.662Z,15.10
2023-01-04T23:43:38.850Z,14.43
2023-01-04T23:46:13.200Z,14.10
2023-01-04T23:48:40.517Z,14.15
2023-01-04T23:51:07.554Z,13.32
2023-01-04T23:53:34.714Z,12.77
2023-01-04T23:56:15.532Z,13.77
2023-01-04T23:58:42.489Z,13.57
